sensor_id;sensor_type;location;lat;lon;timestamp;temperature;humidity
439;DHT22;206;48.782;9.252;2023-06-22T00:00:54;25.00;42.80
439;DHT22;206;48.782;9.252;2023-06-22T00:03:22;25.00;42.40
439;DHT22;206;48.782;9.252;2023-06-22T00:05:48;25.00;42.90
439;DHT22;206;48.782;9.252;2023-06-22T00:08:14;24.90;43.40
439;DHT22;206;48.782;9.252;2023-06-22T00:10:40;24.80;43.60
439;DHT22;206;48.782;9.252;2023-06-22T00:13:07;24.80;44.30
439;DHT22;206;48.782;9.252;2023-06-22T00:15:33;24.70;43.90
439;DHT22;206;48.782;9.252;2023-06-22T00:17:59;24.80;43.60
439;DHT22;206;48.782;9.252;2023-06-22T00:20:25;24.80;44.20
439;DHT22;206;48.782;9.252;2023-06-22T00:22:57;24.70;44.40
439;DHT22;206;48.782;9.252;2023-06-22T00:25:22;24.70;44.40
439;DHT22;206;48.782;9.252;2023-06-22T00:27:49;24.70;44.60
439;DHT22;206;48.782;9.252;2023-06-22T00:30:18;24.70;44.60
439;DHT22;206;48.782;9.252;2023-06-22T00:32:45;24.60;45.10
439;DHT22;206;48.782;9.252;2023-06-22T00:35:11;24.60;45.60
439;DHT22;206;48.782;9.252;2023-06-22T00:37:38;24.50;46.30
439;DHT22;206;48.782;9.252;2023-06-22T00:40:13;24.40;46.60
439;DHT22;206;48.782;9.252;2023-06-22T00:42:40;24.40;46.60
439;DHT22;206;48.782;9.252;2023-06-22T00:45:06;24.30;46.50
439;DHT22;206;48.782;9.252;2023-06-22T00:47:34;24.40;47.20
439;DHT22;206;48.782;9.252;2023-06-22T00:49:59;24.30;47.10
439;DHT22;206;48.782;9.252;2023-06-22T00:52:26;24.20;47.40
439;DHT22;206;48.782;9.252;2023-06-22T00:54:56;24.20;47.50
439;DHT22;206;48.782;9.252;2023-06-22T00:57:22;24.30;47.60
439;DHT22;206;48.782;9.252;2023-06-22T00:59:48;24.20;47.80
439;DHT22;206;48.782;9.252;2023-06-22T01:02:14;24.20;47.80
439;DHT22;206;48.782;9.252;2023-06-22T01:04:40;24.20;48.10
439;DHT22;206;48.782;9.252;2023-06-22T01:07:21;24.30;47.80
439;DHT22;206;48.782;9.252;2023-06-22T01:12:55;24.30;47.50
439;DHT22;206;48.782;9.252;2023-06-22T01:15:28;24.30;48.20
439;DHT22;206;48.782;9.252;2023-06-22T01:17:56;24.20;48.30
439;DHT22;206;48.782;9.252;2023-06-22T01:20:23;24.20;48.60
439;DHT22;206;48.782;9.252;2023-06-22T01:28:49;23.90;50.00
439;DHT22;206;48.782;9.252;2023-06-22T01:31:20;23.70;51.00
439;DHT22;206;48.782;9.252;2023-06-22T01:33:51;23.50;52.50
439;DHT22;206;48.782;9.252;2023-06-22T01:36:19;23.60;52.50
439;DHT22;206;48.782;9.252;2023-06-22T01:38:45;23.50;53.20
439;DHT22;206;48.782;9.252;2023-06-22T01:41:12;23.40;53.30
439;DHT22;206;48.782;9.252;2023-06-22T01:43:38;23.30;53.70
439;DHT22;206;48.782;9.252;2023-06-22T01:46:04;23.30;54.30
439;DHT22;206;48.782;9.252;2023-06-22T01:48:31;23.30;54.20
439;DHT22;206;48.782;9.252;2023-06-22T01:50:57;23.30;53.90
439;DHT22;206;48.782;9.252;2023-06-22T01:53:23;23.20;54.30
439;DHT22;206;48.782;9.252;2023-06-22T01:55:49;23.20;55.10
439;DHT22;206;48.782;9.252;2023-06-22T01:58:15;23.30;54.70
439;DHT22;206;48.782;9.252;2023-06-22T02:00:46;23.20;54.90
439;DHT22;206;48.782;9.252;2023-06-22T02:03:19;23.20;55.40
439;DHT22;206;48.782;9.252;2023-06-22T02:05:56;23.10;55.30
439;DHT22;206;48.782;9.252;2023-06-22T02:08:28;23.20;55.40
439;DHT22;206;48.782;9.252;2023-06-22T02:10:55;23.10;56.00
439;DHT22;206;48.782;9.252;2023-06-22T02:13:24;22.90;57.80
439;DHT22;206;48.782;9.252;2023-06-22T02:15:50;22.80;58.60
439;DHT22;206;48.782;9.252;2023-06-22T02:18:16;22.80;59.00
439;DHT22;206;48.782;9.252;2023-06-22T02:20:42;22.70;59.50
439;DHT22;206;48.782;9.252;2023-06-22T02:23:08;22.80;59.30
439;DHT22;206;48.782;9.252;2023-06-22T02:25:34;22.80;59.00
439;DHT22;206;48.782;9.252;2023-06-22T02:28:00;22.80;59.00
439;DHT22;206;48.782;9.252;2023-06-22T02:30:26;22.80;58.80
439;DHT22;206;48.782;9.252;2023-06-22T02:32:51;22.90;58.50
439;DHT22;206;48.782;9.252;2023-06-22T02:35:27;23.00;57.30
439;DHT22;206;48.782;9.252;2023-06-22T02:38:00;23.10;56.30
439;DHT22;206;48.782;9.252;2023-06-22T02:40:26;23.20;56.00
439;DHT22;206;48.782;9.252;2023-06-22T02:42:52;23.20;55.70
439;DHT22;206;48.782;9.252;2023-06-22T02:45:17;23.10;56.30
439;DHT22;206;48.782;9.252;2023-06-22T02:47:43;23.10;56.60
439;DHT22;206;48.782;9.252;2023-06-22T02:50:09;23.20;55.40
439;DHT22;206;48.782;9.252;2023-06-22T02:52:34;23.30;55.50
439;DHT22;206;48.782;9.252;2023-06-22T02:55:00;23.30;54.60
439;DHT22;206;48.782;9.252;2023-06-22T02:57:26;23.30;55.00
439;DHT22;206;48.782;9.252;2023-06-22T02:59:51;23.20;55.40
439;DHT22;206;48.782;9.252;2023-06-22T03:02:17;23.10;55.70
439;DHT22;206;48.782;9.252;2023-06-22T03:04:43;23.00;56.50
439;DHT22;206;48.782;9.252;2023-06-22T03:07:08;22.90;56.70
439;DHT22;206;48.782;9.252;2023-06-22T03:09:34;23.00;57.10
439;DHT22;206;48.782;9.252;2023-06-22T03:11:59;22.90;57.10
439;DHT22;206;48.782;9.252;2023-06-22T03:14:25;22.90;57.40
439;DHT22;206;48.782;9.252;2023-06-22T03:16:51;22.90;56.80
439;DHT22;206;48.782;9.252;2023-06-22T03:19:17;22.90;57.30
439;DHT22;206;48.782;9.252;2023-06-22T03:21:42;22.90;57.50
439;DHT22;206;48.782;9.252;2023-06-22T03:24:08;22.80;57.90
439;DHT22;206;48.782;9.252;2023-06-22T03:26:34;22.80;58.10
439;DHT22;206;48.782;9.252;2023-06-22T03:29:00;22.90;57.30
439;DHT22;206;48.782;9.252;2023-06-22T03:31:25;22.80;58.10
439;DHT22;206;48.782;9.252;2023-06-22T03:33:51;22.80;58.20
439;DHT22;206;48.782;9.252;2023-06-22T03:36:17;22.70;58.90
439;DHT22;206;48.782;9.252;2023-06-22T03:38:48;22.70;59.80
439;DHT22;206;48.782;9.252;2023-06-22T03:41:14;22.70;59.80
439;DHT22;206;48.782;9.252;2023-06-22T03:43:39;22.60;59.70
439;DHT22;206;48.782;9.252;2023-06-22T03:46:05;22.70;60.10
439;DHT22;206;48.782;9.252;2023-06-22T03:48:31;22.60;60.40
439;DHT22;206;48.782;9.252;2023-06-22T03:50:58;22.50;61.20
439;DHT22;206;48.782;9.252;2023-06-22T03:53:24;22.40;61.90
439;DHT22;206;48.782;9.252;2023-06-22T03:55:50;22.40;62.30
439;DHT22;206;48.782;9.252;2023-06-22T03:58:17;22.30;62.70
439;DHT22;206;48.782;9.252;2023-06-22T04:00:48;22.40;62.50
439;DHT22;206;48.782;9.252;2023-06-22T04:03:14;22.50;62.10
439;DHT22;206;48.782;9.252;2023-06-22T04:05:40;22.50;60.40
439;DHT22;206;48.782;9.252;2023-06-22T04:08:06;22.50;60.30
439;DHT22;206;48.782;9.252;2023-06-22T04:10:32;22.40;60.80
439;DHT22;206;48.782;9.252;2023-06-22T04:12:58;22.50;61.30
439;DHT22;206;48.782;9.252;2023-06-22T04:15:23;22.60;60.90
439;DHT22;206;48.782;9.252;2023-06-22T04:17:49;22.70;59.80
439;DHT22;206;48.782;9.252;2023-06-22T04:20:14;22.70;60.30
439;DHT22;206;48.782;9.252;2023-06-22T04:22:40;22.70;60.00
439;DHT22;206;48.782;9.252;2023-06-22T04:25:06;22.80;59.40
439;DHT22;206;48.782;9.252;2023-06-22T04:27:33;22.80;59.30
439;DHT22;206;48.782;9.252;2023-06-22T04:30:03;22.90;58.70
439;DHT22;206;48.782;9.252;2023-06-22T04:32:29;22.90;58.80
439;DHT22;206;48.782;9.252;2023-06-22T04:34:54;22.90;58.40
439;DHT22;206;48.782;9.252;2023-06-22T04:37:20;22.90;58.20
439;DHT22;206;48.782;9.252;2023-06-22T04:39:49;23.00;57.60
439;DHT22;206;48.782;9.252;2023-06-22T04:42:15;23.10;57.30
439;DHT22;206;48.782;9.252;2023-06-22T04:44:40;23.20;57.00
439;DHT22;206;48.782;9.252;2023-06-22T04:47:07;23.30;55.90
439;DHT22;206;48.782;9.252;2023-06-22T04:49:36;23.30;55.80
439;DHT22;206;48.782;9.252;2023-06-22T04:52:04;23.20;56.30
439;DHT22;206;48.782;9.252;2023-06-22T04:54:30;23.10;56.80
439;DHT22;206;48.782;9.252;2023-06-22T04:56:59;23.20;56.90
439;DHT22;206;48.782;9.252;2023-06-22T04:59:27;23.10;56.70
439;DHT22;206;48.782;9.252;2023-06-22T05:02:00;23.10;56.70
439;DHT22;206;48.782;9.252;2023-06-22T05:04:26;23.20;56.80
439;DHT22;206;48.782;9.252;2023-06-22T05:06:54;23.20;56.60
439;DHT22;206;48.782;9.252;2023-06-22T05:09:20;23.40;55.60
439;DHT22;206;48.782;9.252;2023-06-22T05:11:46;23.50;54.70
439;DHT22;206;48.782;9.252;2023-06-22T05:14:12;23.50;54.30
439;DHT22;206;48.782;9.252;2023-06-22T05:16:38;23.50;54.30
439;DHT22;206;48.782;9.252;2023-06-22T05:19:04;23.60;53.90
439;DHT22;206;48.782;9.252;2023-06-22T05:21:30;23.70;52.80
439;DHT22;206;48.782;9.252;2023-06-22T05:23:56;23.90;52.10
439;DHT22;206;48.782;9.252;2023-06-22T05:26:26;24.00;50.70
439;DHT22;206;48.782;9.252;2023-06-22T05:28:52;24.20;49.30
439;DHT22;206;48.782;9.252;2023-06-22T05:31:19;24.40;47.90
439;DHT22;206;48.782;9.252;2023-06-22T05:33:45;24.50;46.70
439;DHT22;206;48.782;9.252;2023-06-22T05:36:11;24.50;46.70
439;DHT22;206;48.782;9.252;2023-06-22T05:38:38;24.60;46.30
439;DHT22;206;48.782;9.252;2023-06-22T05:41:04;24.60;46.70
439;DHT22;206;48.782;9.252;2023-06-22T05:43:30;24.40;46.60
439;DHT22;206;48.782;9.252;2023-06-22T05:45:55;24.30;47.70
439;DHT22;206;48.782;9.252;2023-06-22T05:48:21;24.20;47.80
439;DHT22;206;48.782;9.252;2023-06-22T05:50:47;24.00;49.60
439;DHT22;206;48.782;9.252;2023-06-22T05:53:12;24.00;49.00
439;DHT22;206;48.782;9.252;2023-06-22T05:55:38;24.20;48.60
439;DHT22;206;48.782;9.252;2023-06-22T05:58:04;24.20;48.60
439;DHT22;206;48.782;9.252;2023-06-22T06:00:30;24.10;48.60
439;DHT22;206;48.782;9.252;2023-06-22T06:02:56;24.30;48.00
439;DHT22;206;48.782;9.252;2023-06-22T06:05:22;24.50;46.70
439;DHT22;206;48.782;9.252;2023-06-22T06:07:49;24.60;46.30
439;DHT22;206;48.782;9.252;2023-06-22T06:10:14;24.70;45.30
439;DHT22;206;48.782;9.252;2023-06-22T06:12:40;24.90;44.90
439;DHT22;206;48.782;9.252;2023-06-22T06:15:06;24.90;44.20
439;DHT22;206;48.782;9.252;2023-06-22T06:17:32;24.90;43.80
439;DHT22;206;48.782;9.252;2023-06-22T06:19:59;24.80;44.30
439;DHT22;206;48.782;9.252;2023-06-22T06:22:25;24.80;43.90
439;DHT22;206;48.782;9.252;2023-06-22T06:24:50;24.60;44.90
439;DHT22;206;48.782;9.252;2023-06-22T06:27:16;24.70;44.60
439;DHT22;206;48.782;9.252;2023-06-22T06:29:45;24.90;43.80
439;DHT22;206;48.782;9.252;2023-06-22T06:32:14;25.10;42.70
439;DHT22;206;48.782;9.252;2023-06-22T06:34:40;25.30;41.00
439;DHT22;206;48.782;9.252;2023-06-22T06:37:06;25.40;41.20
439;DHT22;206;48.782;9.252;2023-06-22T06:39:31;25.50;39.80
439;DHT22;206;48.782;9.252;2023-06-22T06:41:57;25.70;39.90
439;DHT22;206;48.782;9.252;2023-06-22T06:44:22;26.00;38.50
439;DHT22;206;48.782;9.252;2023-06-22T06:46:48;26.30;37.70
439;DHT22;206;48.782;9.252;2023-06-22T06:49:14;26.50;35.70
439;DHT22;206;48.782;9.252;2023-06-22T06:51:39;26.50;35.80
439;DHT22;206;48.782;9.252;2023-06-22T06:54:05;26.60;35.60
439;DHT22;206;48.782;9.252;2023-06-22T06:56:31;26.80;34.80
439;DHT22;206;48.782;9.252;2023-06-22T06:58:58;26.80;34.70
439;DHT22;206;48.782;9.252;2023-06-22T07:01:24;27.00;33.80
439;DHT22;206;48.782;9.252;2023-06-22T07:03:50;27.00;33.00
439;DHT22;206;48.782;9.252;2023-06-22T07:06:15;27.20;31.60
439;DHT22;206;48.782;9.252;2023-06-22T07:08:42;27.40;30.90
439;DHT22;206;48.782;9.252;2023-06-22T07:11:08;27.70;30.10
439;DHT22;206;48.782;9.252;2023-06-22T07:13:33;28.00;28.90
439;DHT22;206;48.782;9.252;2023-06-22T07:15:59;28.20;28.90
439;DHT22;206;48.782;9.252;2023-06-22T07:18:25;28.30;28.90
439;DHT22;206;48.782;9.252;2023-06-22T07:20:51;28.40;28.20
439;DHT22;206;48.782;9.252;2023-06-22T07:23:17;28.50;27.70
439;DHT22;206;48.782;9.252;2023-06-22T07:25:43;28.60;27.70
439;DHT22;206;48.782;9.252;2023-06-22T07:28:09;28.70;27.30
439;DHT22;206;48.782;9.252;2023-06-22T07:30:35;28.70;26.80
439;DHT22;206;48.782;9.252;2023-06-22T07:33:01;28.60;26.70
439;DHT22;206;48.782;9.252;2023-06-22T07:35:33;28.80;26.50
439;DHT22;206;48.782;9.252;2023-06-22T07:37:59;28.90;26.30
439;DHT22;206;48.782;9.252;2023-06-22T07:40:25;29.10;25.90
439;DHT22;206;48.782;9.252;2023-06-22T07:42:50;29.00;25.90
439;DHT22;206;48.782;9.252;2023-06-22T07:45:17;29.10;26.00
439;DHT22;206;48.782;9.252;2023-06-22T07:47:43;29.30;25.80
439;DHT22;206;48.782;9.252;2023-06-22T07:50:09;29.50;25.10
439;DHT22;206;48.782;9.252;2023-06-22T07:52:35;29.70;24.70
439;DHT22;206;48.782;9.252;2023-06-22T07:55:01;30.00;23.90
439;DHT22;206;48.782;9.252;2023-06-22T07:57:28;30.30;23.20
439;DHT22;206;48.782;9.252;2023-06-22T07:59:59;30.50;22.70
439;DHT22;206;48.782;9.252;2023-06-22T08:02:25;30.70;21.80
439;DHT22;206;48.782;9.252;2023-06-22T08:04:51;31.00;21.90
439;DHT22;206;48.782;9.252;2023-06-22T08:07:17;31.20;21.10
439;DHT22;206;48.782;9.252;2023-06-22T08:09:48;31.30;20.70
439;DHT22;206;48.782;9.252;2023-06-22T08:12:15;31.50;20.30
439;DHT22;206;48.782;9.252;2023-06-22T08:14:42;31.70;19.60
439;DHT22;206;48.782;9.252;2023-06-22T08:17:08;31.90;19.30
439;DHT22;206;48.782;9.252;2023-06-22T08:19:34;32.10;18.40
439;DHT22;206;48.782;9.252;2023-06-22T08:22:00;32.10;18.00
439;DHT22;206;48.782;9.252;2023-06-22T08:24:26;32.20;17.90
439;DHT22;206;48.782;9.252;2023-06-22T08:26:55;32.30;17.80
439;DHT22;206;48.782;9.252;2023-06-22T08:29:21;32.30;17.90
439;DHT22;206;48.782;9.252;2023-06-22T08:31:47;32.30;18.10
439;DHT22;206;48.782;9.252;2023-06-22T08:34:12;32.30;18.00
439;DHT22;206;48.782;9.252;2023-06-22T08:36:38;32.40;17.90
439;DHT22;206;48.782;9.252;2023-06-22T08:39:10;32.40;17.70
439;DHT22;206;48.782;9.252;2023-06-22T08:41:35;32.30;17.40
439;DHT22;206;48.782;9.252;2023-06-22T08:44:01;32.00;18.00
439;DHT22;206;48.782;9.252;2023-06-22T08:46:28;32.00;18.20
439;DHT22;206;48.782;9.252;2023-06-22T08:48:57;32.10;17.60
439;DHT22;206;48.782;9.252;2023-06-22T08:51:26;32.00;17.90
439;DHT22;206;48.782;9.252;2023-06-22T08:53:52;31.70;18.30
439;DHT22;206;48.782;9.252;2023-06-22T08:56:18;31.40;18.90
439;DHT22;206;48.782;9.252;2023-06-22T08:58:44;31.30;19.00
439;DHT22;206;48.782;9.252;2023-06-22T09:01:09;31.20;19.30
439;DHT22;206;48.782;9.252;2023-06-22T09:03:35;31.00;19.50
439;DHT22;206;48.782;9.252;2023-06-22T09:06:03;31.00;19.50
439;DHT22;206;48.782;9.252;2023-06-22T09:08:28;31.10;19.40
439;DHT22;206;48.782;9.252;2023-06-22T09:10:54;31.10;19.50
439;DHT22;206;48.782;9.252;2023-06-22T09:13:19;31.20;19.40
439;DHT22;206;48.782;9.252;2023-06-22T09:15:45;31.30;19.00
439;DHT22;206;48.782;9.252;2023-06-22T09:18:11;31.30;18.70
439;DHT22;206;48.782;9.252;2023-06-22T09:20:37;31.20;18.80
439;DHT22;206;48.782;9.252;2023-06-22T09:23:03;31.10;19.10
439;DHT22;206;48.782;9.252;2023-06-22T09:25:28;31.30;18.90
439;DHT22;206;48.782;9.252;2023-06-22T09:27:54;31.40;18.40
439;DHT22;206;48.782;9.252;2023-06-22T09:30:19;31.50;18.40
439;DHT22;206;48.782;9.252;2023-06-22T09:32:45;31.70;18.00
439;DHT22;206;48.782;9.252;2023-06-22T09:35:11;31.80;17.70
439;DHT22;206;48.782;9.252;2023-06-22T09:37:39;32.00;17.20
439;DHT22;206;48.782;9.252;2023-06-22T09:40:06;32.10;17.00
439;DHT22;206;48.782;9.252;2023-06-22T09:42:34;32.20;16.90
439;DHT22;206;48.782;9.252;2023-06-22T09:45:00;32.30;16.60
439;DHT22;206;48.782;9.252;2023-06-22T09:47:27;32.20;17.30
439;DHT22;206;48.782;9.252;2023-06-22T09:49:53;32.20;16.40
439;DHT22;206;48.782;9.252;2023-06-22T09:52:21;32.00;16.80
439;DHT22;206;48.782;9.252;2023-06-22T09:54:46;32.00;16.80
439;DHT22;206;48.782;9.252;2023-06-22T09:57:12;31.80;17.00
439;DHT22;206;48.782;9.252;2023-06-22T09:59:38;31.80;17.20
439;DHT22;206;48.782;9.252;2023-06-22T10:02:06;31.80;16.80
439;DHT22;206;48.782;9.252;2023-06-22T10:04:32;31.80;16.50
439;DHT22;206;48.782;9.252;2023-06-22T10:06:58;32.00;16.40
439;DHT22;206;48.782;9.252;2023-06-22T10:09:24;32.10;16.30
439;DHT22;206;48.782;9.252;2023-06-22T10:11:49;32.20;15.50
439;DHT22;206;48.782;9.252;2023-06-22T10:14:15;32.30;15.80
439;DHT22;206;48.782;9.252;2023-06-22T10:16:41;32.30;15.70
439;DHT22;206;48.782;9.252;2023-06-22T10:19:07;32.40;16.20
439;DHT22;206;48.782;9.252;2023-06-22T10:21:33;32.60;15.70
439;DHT22;206;48.782;9.252;2023-06-22T10:24:00;32.70;15.50
439;DHT22;206;48.782;9.252;2023-06-22T10:26:32;32.80;14.90
439;DHT22;206;48.782;9.252;2023-06-22T10:28:59;33.00;14.30
439;DHT22;206;48.782;9.252;2023-06-22T10:31:25;33.10;14.40
439;DHT22;206;48.782;9.252;2023-06-22T10:33:50;33.10;14.40
439;DHT22;206;48.782;9.252;2023-06-22T10:36:16;33.20;14.40
439;DHT22;206;48.782;9.252;2023-06-22T10:38:42;33.20;14.40
439;DHT22;206;48.782;9.252;2023-06-22T10:41:07;33.30;14.50
439;DHT22;206;48.782;9.252;2023-06-22T10:43:33;33.40;14.50
439;DHT22;206;48.782;9.252;2023-06-22T10:45:58;33.40;14.50
439;DHT22;206;48.782;9.252;2023-06-22T10:48:24;33.40;14.50
439;DHT22;206;48.782;9.252;2023-06-22T10:50:49;33.50;14.60
439;DHT22;206;48.782;9.252;2023-06-22T10:53:15;33.50;14.10
439;DHT22;206;48.782;9.252;2023-06-22T10:55:41;33.60;13.50
439;DHT22;206;48.782;9.252;2023-06-22T10:58:06;33.60;13.40
439;DHT22;206;48.782;9.252;2023-06-22T11:00:32;33.70;13.20
439;DHT22;206;48.782;9.252;2023-06-22T11:02:57;33.80;13.30
439;DHT22;206;48.782;9.252;2023-06-22T11:05:24;33.80;13.40
439;DHT22;206;48.782;9.252;2023-06-22T11:07:49;33.70;13.50
439;DHT22;206;48.782;9.252;2023-06-22T11:10:15;33.80;12.90
439;DHT22;206;48.782;9.252;2023-06-22T11:12:41;33.80;12.80
439;DHT22;206;48.782;9.252;2023-06-22T11:15:08;33.90;12.80
439;DHT22;206;48.782;9.252;2023-06-22T11:17:34;33.80;13.10
439;DHT22;206;48.782;9.252;2023-06-22T11:20:00;33.80;13.60
439;DHT22;206;48.782;9.252;2023-06-22T11:22:26;33.90;13.20
439;DHT22;206;48.782;9.252;2023-06-22T11:24:51;33.80;13.40
439;DHT22;206;48.782;9.252;2023-06-22T11:27:17;33.80;13.50
439;DHT22;206;48.782;9.252;2023-06-22T11:29:42;33.80;13.50
439;DHT22;206;48.782;9.252;2023-06-22T11:32:08;33.70;13.40
439;DHT22;206;48.782;9.252;2023-06-22T11:34:34;33.80;13.80
439;DHT22;206;48.782;9.252;2023-06-22T11:37:00;33.80;13.90
439;DHT22;206;48.782;9.252;2023-06-22T11:39:26;33.80;13.60
439;DHT22;206;48.782;9.252;2023-06-22T11:41:52;33.80;13.60
439;DHT22;206;48.782;9.252;2023-06-22T11:44:18;33.90;13.70
439;DHT22;206;48.782;9.252;2023-06-22T11:46:43;33.90;13.60
439;DHT22;206;48.782;9.252;2023-06-22T11:49:09;33.90;14.10
439;DHT22;206;48.782;9.252;2023-06-22T11:51:34;34.00;13.70
439;DHT22;206;48.782;9.252;2023-06-22T11:54:00;34.10;13.10
439;DHT22;206;48.782;9.252;2023-06-22T11:56:26;34.10;12.90
439;DHT22;206;48.782;9.252;2023-06-22T11:58:53;34.20;13.00
439;DHT22;206;48.782;9.252;2023-06-22T12:01:19;34.20;12.50
439;DHT22;206;48.782;9.252;2023-06-22T12:03:45;34.10;12.70
439;DHT22;206;48.782;9.252;2023-06-22T12:06:11;34.10;12.90
439;DHT22;206;48.782;9.252;2023-06-22T12:08:37;34.00;13.10
439;DHT22;206;48.782;9.252;2023-06-22T12:11:02;33.90;13.20
439;DHT22;206;48.782;9.252;2023-06-22T12:13:28;33.90;13.40
439;DHT22;206;48.782;9.252;2023-06-22T12:15:53;33.90;13.20
439;DHT22;206;48.782;9.252;2023-06-22T12:18:19;34.00;13.10
439;DHT22;206;48.782;9.252;2023-06-22T12:20:46;34.10;12.70
439;DHT22;206;48.782;9.252;2023-06-22T12:23:12;34.10;12.50
439;DHT22;206;48.782;9.252;2023-06-22T12:25:39;34.10;12.60
439;DHT22;206;48.782;9.252;2023-06-22T12:28:04;34.10;12.40
439;DHT22;206;48.782;9.252;2023-06-22T12:30:30;34.10;12.30
439;DHT22;206;48.782;9.252;2023-06-22T12:32:56;34.10;12.30
439;DHT22;206;48.782;9.252;2023-06-22T12:35:21;34.20;12.80
439;DHT22;206;48.782;9.252;2023-06-22T12:37:47;34.20;12.10
439;DHT22;206;48.782;9.252;2023-06-22T12:40:13;34.30;12.10
439;DHT22;206;48.782;9.252;2023-06-22T12:42:39;34.40;11.80
439;DHT22;206;48.782;9.252;2023-06-22T12:45:05;34.30;11.60
439;DHT22;206;48.782;9.252;2023-06-22T12:47:31;34.30;11.60
439;DHT22;206;48.782;9.252;2023-06-22T12:49:56;34.10;11.40
439;DHT22;206;48.782;9.252;2023-06-22T12:52:23;34.00;11.70
439;DHT22;206;48.782;9.252;2023-06-22T12:54:48;33.90;12.60
439;DHT22;206;48.782;9.252;2023-06-22T12:57:14;33.90;13.20
439;DHT22;206;48.782;9.252;2023-06-22T12:59:40;33.80;13.60
439;DHT22;206;48.782;9.252;2023-06-22T13:02:05;33.70;13.90
439;DHT22;206;48.782;9.252;2023-06-22T13:04:31;33.70;14.40
439;DHT22;206;48.782;9.252;2023-06-22T13:06:56;33.70;14.70
439;DHT22;206;48.782;9.252;2023-06-22T13:09:22;33.70;14.70
439;DHT22;206;48.782;9.252;2023-06-22T13:11:48;33.70;14.00
439;DHT22;206;48.782;9.252;2023-06-22T13:14:13;33.70;13.80
439;DHT22;206;48.782;9.252;2023-06-22T13:16:41;33.70;14.00
439;DHT22;206;48.782;9.252;2023-06-22T13:19:07;33.60;13.70
439;DHT22;206;48.782;9.252;2023-06-22T13:21:32;33.50;13.90
439;DHT22;206;48.782;9.252;2023-06-22T13:23:59;33.50;14.10
439;DHT22;206;48.782;9.252;2023-06-22T13:26:25;33.50;14.20
439;DHT22;206;48.782;9.252;2023-06-22T13:28:50;33.50;13.60
439;DHT22;206;48.782;9.252;2023-06-22T13:31:16;33.60;13.70
439;DHT22;206;48.782;9.252;2023-06-22T13:33:42;33.60;13.70
439;DHT22;206;48.782;9.252;2023-06-22T13:36:07;33.70;13.90
439;DHT22;206;48.782;9.252;2023-06-22T13:38:35;33.80;14.20
439;DHT22;206;48.782;9.252;2023-06-22T13:41:04;33.80;13.80
439;DHT22;206;48.782;9.252;2023-06-22T13:43:29;33.90;13.70
439;DHT22;206;48.782;9.252;2023-06-22T13:45:55;34.00;13.80
439;DHT22;206;48.782;9.252;2023-06-22T13:48:20;34.00;13.00
439;DHT22;206;48.782;9.252;2023-06-22T13:50:46;34.10;12.30
439;DHT22;206;48.782;9.252;2023-06-22T13:53:11;34.20;12.50
439;DHT22;206;48.782;9.252;2023-06-22T13:55:37;34.20;12.50
439;DHT22;206;48.782;9.252;2023-06-22T13:58:03;34.20;13.00
439;DHT22;206;48.782;9.252;2023-06-22T14:00:28;34.30;12.60
439;DHT22;206;48.782;9.252;2023-06-22T14:02:54;34.30;12.80
439;DHT22;206;48.782;9.252;2023-06-22T14:05:20;34.30;12.40
439;DHT22;206;48.782;9.252;2023-06-22T14:07:45;34.30;12.30
439;DHT22;206;48.782;9.252;2023-06-22T14:10:11;34.30;11.60
439;DHT22;206;48.782;9.252;2023-06-22T14:12:36;34.30;11.60
439;DHT22;206;48.782;9.252;2023-06-22T14:15:02;34.30;11.60
439;DHT22;206;48.782;9.252;2023-06-22T14:17:28;34.40;11.50
439;DHT22;206;48.782;9.252;2023-06-22T14:19:54;34.50;11.50
439;DHT22;206;48.782;9.252;2023-06-22T14:22:20;34.50;11.30
439;DHT22;206;48.782;9.252;2023-06-22T14:24:46;34.60;11.40
439;DHT22;206;48.782;9.252;2023-06-22T14:27:12;34.60;11.00
439;DHT22;206;48.782;9.252;2023-06-22T14:29:38;34.70;10.70
439;DHT22;206;48.782;9.252;2023-06-22T14:32:03;34.60;10.30
439;DHT22;206;48.782;9.252;2023-06-22T14:34:32;34.70;10.20
439;DHT22;206;48.782;9.252;2023-06-22T14:36:57;34.70;10.00
439;DHT22;206;48.782;9.252;2023-06-22T14:39:23;34.70;9.50
439;DHT22;206;48.782;9.252;2023-06-22T14:41:48;34.70;9.10
439;DHT22;206;48.782;9.252;2023-06-22T14:44:14;34.70;9.00
439;DHT22;206;48.782;9.252;2023-06-22T14:46:40;34.70;8.50
439;DHT22;206;48.782;9.252;2023-06-22T14:49:05;34.60;8.20
439;DHT22;206;48.782;9.252;2023-06-22T14:51:31;34.60;6.70
439;DHT22;206;48.782;9.252;2023-06-22T14:53:57;34.60;6.20
439;DHT22;206;48.782;9.252;2023-06-22T14:56:22;34.60;6.10
439;DHT22;206;48.782;9.252;2023-06-22T14:58:48;34.60;6.10
439;DHT22;206;48.782;9.252;2023-06-22T15:01:16;34.40;6.00
439;DHT22;206;48.782;9.252;2023-06-22T15:03:42;34.30;5.10
439;DHT22;206;48.782;9.252;2023-06-22T15:06:08;34.30;3.40
439;DHT22;206;48.782;9.252;2023-06-22T15:08:33;34.20;3.10
439;DHT22;206;48.782;9.252;2023-06-22T15:11:00;34.10;2.40
439;DHT22;206;48.782;9.252;2023-06-22T15:13:31;34.00;2.80
439;DHT22;206;48.782;9.252;2023-06-22T15:16:03;33.90;2.80
439;DHT22;206;48.782;9.252;2023-06-22T15:18:29;33.90;2.90
439;DHT22;206;48.782;9.252;2023-06-22T15:20:55;33.80;2.90
439;DHT22;206;48.782;9.252;2023-06-22T15:23:20;33.80;3.10
439;DHT22;206;48.782;9.252;2023-06-22T15:25:46;33.80;2.90
439;DHT22;206;48.782;9.252;2023-06-22T15:28:12;33.80;3.20
439;DHT22;206;48.782;9.252;2023-06-22T15:30:38;33.90;3.00
439;DHT22;206;48.782;9.252;2023-06-22T15:33:04;33.90;2.90
439;DHT22;206;48.782;9.252;2023-06-22T15:35:30;33.90;2.90
439;DHT22;206;48.782;9.252;2023-06-22T15:37:55;33.90;2.70
439;DHT22;206;48.782;9.252;2023-06-22T15:40:21;33.90;2.60
439;DHT22;206;48.782;9.252;2023-06-22T15:42:49;33.90;2.90
439;DHT22;206;48.782;9.252;2023-06-22T15:45:15;33.90;3.00
439;DHT22;206;48.782;9.252;2023-06-22T15:47:41;33.90;3.10
439;DHT22;206;48.782;9.252;2023-06-22T15:50:07;33.90;2.80
439;DHT22;206;48.782;9.252;2023-06-22T15:52:32;33.90;2.90
439;DHT22;206;48.782;9.252;2023-06-22T15:54:58;34.00;3.10
439;DHT22;206;48.782;9.252;2023-06-22T15:57:26;33.90;2.70
439;DHT22;206;48.782;9.252;2023-06-22T15:59:52;33.90;2.40
439;DHT22;206;48.782;9.252;2023-06-22T16:02:18;33.90;2.40
439;DHT22;206;48.782;9.252;2023-06-22T16:04:43;33.90;2.50
439;DHT22;206;48.782;9.252;2023-06-22T16:07:09;33.90;2.50
439;DHT22;206;48.782;9.252;2023-06-22T16:09:37;33.80;2.70
439;DHT22;206;48.782;9.252;2023-06-22T16:12:03;33.80;2.90
439;DHT22;206;48.782;9.252;2023-06-22T16:14:28;33.70;3.10
439;DHT22;206;48.782;9.252;2023-06-22T16:16:54;33.60;3.50
439;DHT22;206;48.782;9.252;2023-06-22T16:19:19;33.50;3.90
439;DHT22;206;48.782;9.252;2023-06-22T16:21:45;33.50;4.10
439;DHT22;206;48.782;9.252;2023-06-22T16:24:11;33.40;4.30
439;DHT22;206;48.782;9.252;2023-06-22T16:26:41;33.40;4.70
439;DHT22;206;48.782;9.252;2023-06-22T16:29:07;33.30;4.90
439;DHT22;206;48.782;9.252;2023-06-22T16:31:33;33.20;5.40
439;DHT22;206;48.782;9.252;2023-06-22T16:33:59;33.20;5.40
439;DHT22;206;48.782;9.252;2023-06-22T16:36:25;33.10;5.30
439;DHT22;206;48.782;9.252;2023-06-22T16:38:50;33.10;5.30